AXCGGARGarmin  id=247  GPS 72 Software Version 2.50|2140330771
HFDTE230813
HFPLTPilot:UNREGISTERED
HFTZOTimezone:2
HFSITSite:
HPGTYGliderType:
HPGIDGliderID:
HFDTM100DATUM:WGS-1984
HFCIDCOMPETITIONID:
HFCCLCOMPETITIONCLASS:
LXCG     ICON:C:\Program Files\CompeGPS\symbols\IconsPlay\cronos.ico
LXCG     COLOR:000119119
I00
B1625233737980N00049382WA0000000053
B1625293738064N00049432WA0000000169
B1625353738085N00049436WA0000000172
B1625413738107N00049442WA0000000191
B1625473738132N00049448WA0000000197
B1625533738152N00049458WA0000000201
B1625593738171N00049470WA0000000204
B1626053738193N00049481WA0000000206
B1626113738214N00049494WA0000000210
B1626173738236N00049507WA0000000206
B1626233738258N00049513WA0000000202
B1626293738279N00049517WA0000000202
B1626353738285N00049514WA0000000202
B1626413738281N00049509WA0000000214
B1626473738271N00049507WA0000000215
B1626533738261N00049504WA0000000208
B1626593738235N00049511WA0000000201
B1627053738207N00049520WA0000000202
B1627113738188N00049520WA0000000206
B1627173738185N00049512WA0000000209
B1627233738188N00049504WA0000000213
B1627293738199N00049500WA0000000214
B1627353738217N00049502WA0000000214
B1627413738239N00049506WA0000000215
B1627473738258N00049514WA0000000215
B1627533738272N00049511WA0000000215
B1627593738282N00049504WA0000000215
B1628053738292N00049496WA0000000214
B1628113738297N00049489WA0000000211
B1628173738307N00049482WA0000000205
B1628233738316N00049477WA0000000202
B1628293738309N00049472WA0000000197
B1628353738280N00049485WA0000000192
B1628413738252N00049501WA0000000189
B1628473738224N00049511WA0000000189
B1628533738209N00049504WA0000000198
B1628593738205N00049496WA0000000199
B1629053738213N00049490WA0000000199
B1629113738230N00049496WA0000000199
B1629173738252N00049506WA0000000197
B1629233738271N00049512WA0000000192
B1629293738268N00049505WA0000000187
B1629353738242N00049512WA0000000185
B1629413738216N00049519WA0000000185
B1629473738191N00049522WA0000000185
B1629533738167N00049516WA0000000186
B1629593738140N00049517WA0000000191
B1630053738122N00049519WA0000000202
B1630113738117N00049511WA0000000203
B1630173738118N00049502WA0000000206
B1630233738101N00049495WA0000000209
B1630293738074N00049496WA0000000210
B1630353738047N00049494WA0000000211
B1630413738026N00049488WA0000000212
B1630473738001N00049484WA0000000213
B1630533737992N00049472WA0000000215
B1630593737996N00049463WA0000000215
B1631053738005N00049460WA0000000216
B1631113738014N00049459WA0000000216
B1631173738018N00049452WA0000000216
B1631233738009N00049438WA0000000216
B1631293738006N00049428WA0000000216
B1631353738005N00049424WA0000000216
B1631413738009N00049417WA0000000217
B1631473738001N00049406WA0000000219
B1631533737990N00049393WA0000000230
B1631593737994N00049387WA0000000240
B1632053738002N00049384WA0000000243
B1632113738008N00049372WA0000000244
B1632173738006N00049357WA0000000244
B1632233738000N00049341WA0000000244
B1632293737991N00049328WA0000000244
B1632353737976N00049319WA0000000244
B1632413737966N00049303WA0000000244
B1632473737962N00049289WA0000000244
B1632533737959N00049276WA0000000245
B1632593737962N00049261WA0000000245
B1633053737965N00049251WA0000000245
B1633113737965N00049240WA0000000245
B1633173737949N00049233WA0000000245
B1633233737944N00049224WA0000000245
B1633293737966N00049229WA0000000245
B1633353737985N00049253WA0000000245
B1633413737999N00049280WA0000000241
B1633473738015N00049301WA0000000242
B1633533738033N00049327WA0000000239
B1633593738049N00049365WA0000000235
B1634053738063N00049378WA0000000231
B1634113738053N00049370WA0000000230
B1634173738041N00049359WA0000000230
B1634233738021N00049350WA0000000230
B1634293738000N00049343WA0000000230
B1634353737980N00049336WA0000000230
B1634413737963N00049325WA0000000230
B1634473737973N00049317WA0000000229
B1634533737985N00049324WA0000000229
B1634593738002N00049350WA0000000182
B1635053738015N00049393WA0000000180
B1635113738027N00049440WA0000000178
B1635173738042N00049473WA0000000179
B1635233738056N00049476WA0000000182
B1635293738066N00049478WA0000000185
B1635353738073N00049478WA0000000187
B1635413738079N00049474WA0000000187
B1635473738082N00049470WA0000000187
B1635533738059N00049469WA0000000187
B1635593738023N00049479WA0000000188
B1636053737995N00049483WA0000000188
B1636113737995N00049480WA0000000188
B1636173737998N00049478WA0000000188
B1636233738001N00049471WA0000000189
B1636293738005N00049465WA0000000189
B1636353738006N00049457WA0000000189
B1636413738009N00049447WA0000000189
B1636473738014N00049437WA0000000196
B1636533738022N00049428WA0000000202
B1636593738028N00049416WA0000000208
B1637053738032N00049404WA0000000211
B1637113738039N00049391WA0000000214
B1637173738050N00049382WA0000000215
B1637233738066N00049377WA0000000216
B1637293738082N00049373WA0000000219
B1637353738099N00049369WA0000000219
B1637413738117N00049368WA0000000219
B1637473738136N00049368WA0000000218
B1637533738156N00049380WA0000000215
B1637593738172N00049423WA0000000208
B1638053738190N00049470WA0000000206
B1638113738215N00049493WA0000000206
B1638173738207N00049488WA0000000205
B1638233738178N00049499WA0000000205
B1638293738155N00049506WA0000000205
B1638353738142N00049500WA0000000205
B1638413738116N00049506WA0000000205
B1638473738105N00049500WA0000000205
B1638533738122N00049510WA0000000205
B1638593738139N00049522WA0000000204
B1639053738126N00049519WA0000000206
B1639113738102N00049523WA0000000205
B1639173738105N00049514WA0000000206
B1639233738120N00049514WA0000000207
B1639293738139N00049518WA0000000206
B1639353738161N00049526WA0000000207
B1639413738185N00049538WA0000000215
B1639473738198N00049538WA0000000223
B1639533738198N00049533WA0000000228
B1639593738198N00049528WA0000000230
B1640053738202N00049521WA0000000231
B1640113738209N00049513WA0000000232
B1640173738208N00049506WA0000000232
B1640233738210N00049502WA0000000235
B1640293738214N00049495WA0000000237
B1640353738215N00049486WA0000000248
B1640413738221N00049477WA0000000250
B1640473738226N00049469WA0000000251
B1640533738235N00049461WA0000000252
B1640593738247N00049450WA0000000257
B1641053738255N00049441WA0000000260
B1641113738241N00049440WA0000000260
B1641173738223N00049486WA0000000257
B1641233738238N00049536WA0000000258
B1641293738254N00049540WA0000000257
B1641353738261N00049534WA0000000258
B1641413738263N00049529WA0000000257
B1641473738264N00049524WA0000000259
B1641533738262N00049516WA0000000269
B1641593738267N00049509WA0000000278
B1642053738267N00049499WA0000000283
B1642113738264N00049494WA0000000290
B1642173738260N00049489WA0000000301
B1642233738263N00049478WA0000000296
B1642293738266N00049470WA0000000299
B1642353738274N00049464WA0000000309
B1642413738281N00049454WA0000000312
B1642473738284N00049441WA0000000317
B1642533738285N00049432WA0000000322
B1642593738288N00049422WA0000000325
B1643053738294N00049411WA0000000334
B1643113738301N00049402WA0000000338
B1643173738306N00049392WA0000000337
B1643233738303N00049382WA0000000337
B1643293738301N00049372WA0000000332
B1643353738303N00049358WA0000000330
B1643413738305N00049343WA0000000343
B1643473738307N00049328WA0000000356
B1643533738311N00049319WA0000000366
B1643593738312N00049308WA0000000374
B1644053738314N00049298WA0000000385
B1644113738315N00049295WA0000000390
B1644173738316N00049291WA0000000383
B1644233738313N00049281WA0000000385
B1644293738307N00049267WA0000000378
B1644353738303N00049255WA0000000370
B1644413738299N00049240WA0000000358
B1644473738293N00049223WA0000000345
B1644533738286N00049206WA0000000347
B1644593738282N00049189WA0000000347
B1645053738277N00049173WA0000000348
B1645113738275N00049161WA0000000350
B1645173738271N00049150WA0000000337
B1645233738276N00049140WA0000000324
B1645293738291N00049135WA0000000311
B1645353738304N00049127WA0000000301
B1645413738314N00049119WA0000000289
B1645473738328N00049114WA0000000288
B1645533738340N00049108WA0000000284
B1645593738348N00049096WA0000000288
B1646053738353N00049086WA0000000289
B1646113738361N00049080WA0000000296
B1646173738370N00049072WA0000000301
B1646233738377N00049066WA0000000304
B1646293738385N00049056WA0000000303
B1646353738393N00049045WA0000000303
B1646413738398N00049033WA0000000301
B1646473738406N00049024WA0000000306
B1646533738414N00049013WA0000000308
B1646593738420N00049003WA0000000311
B1647053738419N00048996WA0000000312
B1647113738426N00048991WA0000000314
B1647173738433N00048985WA0000000312
B1647233738433N00048977WA0000000309
B1647293738432N00048967WA0000000307
B1647353738436N00048958WA0000000306
B1647413738438N00048946WA0000000306
B1647473738443N00048933WA0000000306
B1647533738445N00048918WA0000000306
B1647593738441N00048903WA0000000304
B1648053738436N00048892WA0000000301
B1648113738433N00048878WA0000000298
B1648173738427N00048866WA0000000291
B1648233738402N00048868WA0000000285
B1648293738371N00048909WA0000000281
B1648353738345N00048960WA0000000280
B1648413738320N00048963WA0000000280
B1648473738310N00048960WA0000000276
B1648533738286N00048970WA0000000264
B1648593738258N00049021WA0000000252
B1649053738240N00049086WA0000000246
B1649113738223N00049155WA0000000244
B1649173738209N00049221WA0000000243
B1649233738197N00049289WA0000000243
B1649293738193N00049355WA0000000243
B1649353738183N00049416WA0000000242
B1649413738166N00049468WA0000000240
B1649473738139N00049499WA0000000188
B1649533738116N00049507WA0000000187
B1649593738104N00049495WA0000000195
B1650053738082N00049489WA0000000193
B1650113738056N00049488WA0000000194
B1650173738027N00049493WA0000000200
B1650233738004N00049487WA0000000202
B1650293737990N00049479WA0000000206
B1650353737996N00049474WA0000000212
B1650413738005N00049475WA0000000215
B1650473738021N00049487WA0000000218
B1650533738036N00049499WA0000000222
B1650593738031N00049492WA0000000223
B1651053738005N00049494WA0000000223
B1651113737988N00049491WA0000000224
B1651173738001N00049498WA0000000225
B1651233738020N00049517WA0000000226
B1651293738040N00049539WA0000000227
B1651353738058N00049546WA0000000228
B1651413738073N00049546WA0000000231
B1651473738088N00049543WA0000000234
B1651533738106N00049544WA0000000234
B1651593738130N00049549WA0000000236
B1652053738154N00049556WA0000000240
B1652113738177N00049556WA0000000246
B1652173738194N00049553WA0000000258
B1652233738201N00049549WA0000000268
B1652293738203N00049544WA0000000275
B1652353738210N00049541WA0000000274
B1652413738218N00049539WA0000000273
B1652473738216N00049532WA0000000272
B1652533738209N00049524WA0000000270
B1652593738201N00049515WA0000000268
B1653053738195N00049504WA0000000269
B1653113738189N00049497WA0000000270
B1653173738182N00049489WA0000000271
B1653233738181N00049480WA0000000273
B1653293738171N00049473WA0000000272
B1653353738163N00049464WA0000000273
B1653413738152N00049456WA0000000268
B1653473738140N00049447WA0000000264
B1653533738125N00049439WA0000000262
B1653593738109N00049430WA0000000261
B1654053738098N00049418WA0000000263
B1654113738085N00049406WA0000000260
B1654173738071N00049395WA0000000255
B1654233738055N00049383WA0000000249
B1654293738035N00049372WA0000000243
B1654353738014N00049366WA0000000236
B1654413737991N00049360WA0000000235
B1654473737975N00049351WA0000000241
B1654533737956N00049346WA0000000239
B1654593737937N00049336WA0000000236
B1655053737943N00049330WA0000000226
B1655113737962N00049343WA0000000219
B1655173737983N00049366WA0000000213
B1655233738000N00049403WA0000000214
B1655293738016N00049439WA0000000214
B1655353738029N00049482WA0000000218
B1655413738045N00049510WA0000000218
B1655473738045N00049504WA0000000222
B1655533738043N00049494WA0000000224
B1655593738032N00049485WA0000000222
B1656053738001N00049488WA0000000219
B1656113737979N00049479WA0000000215
B1656173737985N00049481WA0000000214
B1656233738002N00049503WA0000000214
B1656293738015N00049513WA0000000216
B1656353738028N00049520WA0000000216
B1656413738043N00049558WA0000000217
B1656473738060N00049584WA0000000220
B1656533738069N00049584WA0000000223
B1656593738071N00049575WA0000000227
B1657053738075N00049568WA0000000231
B1657113738079N00049559WA0000000237
B1657173738083N00049551WA0000000242
B1657233738091N00049544WA0000000243
B1657293738107N00049550WA0000000248
B1657353738127N00049569WA0000000251
B1657413738139N00049576WA0000000254
B1657473738130N00049569WA0000000258
B1657533738130N00049559WA0000000266
B1657593738143N00049562WA0000000268
B1658053738159N00049566WA0000000271
B1658113738173N00049569WA0000000276
B1658173738187N00049571WA0000000274
B1658233738192N00049570WA0000000273
B1658293738176N00049566WA0000000270
B1658353738149N00049572WA0000000266
B1658413738122N00049577WA0000000261
B1658473738112N00049566WA0000000257
B1658533738107N00049553WA0000000255
B1658593738106N00049542WA0000000256
B1659053738107N00049530WA0000000261
B1659113738108N00049521WA0000000271
B1659173738116N00049517WA0000000280
B1659233738128N00049513WA0000000286
B1659293738134N00049506WA0000000292
B1659353738136N00049498WA0000000294
B1659413738143N00049492WA0000000301
B1659473738147N00049485WA0000000306
B1659533738124N00049500WA0000000312
B1659593738121N00049555WA0000000316
B1700053738143N00049572WA0000000318
B1700113738156N00049569WA0000000326
B1700173738169N00049562WA0000000337
B1700233738184N00049554WA0000000352
B1700293738190N00049550WA0000000365
B1700353738200N00049544WA0000000377
B1700413738209N00049543WA0000000379
B1700473738211N00049541WA0000000371
B1700533738218N00049529WA0000000369
B1700593738222N00049517WA0000000369
B1701053738225N00049508WA0000000364
B1701113738230N00049499WA0000000362
B1701173738236N00049490WA0000000358
B1701233738247N00049477WA0000000360
B1701293738261N00049464WA0000000372
B1701353738270N00049460WA0000000374
B1701413738283N00049454WA0000000380
B1701473738293N00049446WA0000000371
B1701533738303N00049433WA0000000371
B1701593738315N00049425WA0000000376
B1702053738327N00049422WA0000000374
B1702113738339N00049414WA0000000377
B1702173738353N00049403WA0000000385
B1702233738368N00049402WA0000000387
B1702293738383N00049393WA0000000379
B1702353738402N00049388WA0000000369
B1702413738419N00049385WA0000000361
B1702473738436N00049381WA0000000351
B1702533738451N00049375WA0000000343
B1702593738467N00049369WA0000000337
B1703053738483N00049369WA0000000329
B1703113738498N00049365WA0000000320
B1703173738511N00049360WA0000000311
B1703233738527N00049355WA0000000303
B1703293738540N00049349WA0000000293
B1703353738552N00049338WA0000000292
B1703413738564N00049329WA0000000295
B1703473738573N00049321WA0000000303
B1703533738581N00049317WA0000000301
B1703593738584N00049306WA0000000304
B1704053738588N00049295WA0000000311
B1704113738594N00049283WA0000000315
B1704173738600N00049272WA0000000311
B1704233738608N00049258WA0000000310
B1704293738613N00049245WA0000000307
B1704353738622N00049234WA0000000315
B1704413738631N00049223WA0000000309
B1704473738634N00049209WA0000000300
B1704533738639N00049199WA0000000295
B1704593738645N00049187WA0000000282
B1705053738638N00049177WA0000000279
B1705113738628N00049171WA0000000283
B1705173738631N00049162WA0000000287
B1705233738613N00049155WA0000000274
B1705293738586N00049157WA0000000259
B1705353738554N00049166WA0000000247
B1705413738521N00049185WA0000000241
B1705473738486N00049212WA0000000236
B1705533738454N00049246WA0000000228
B1705593738422N00049282WA0000000215
B1706053738392N00049321WA0000000203
B1706113738360N00049361WA0000000194
B1706173738329N00049401WA0000000189
B1706233738299N00049446WA0000000188
B1706293738267N00049485WA0000000188
B1706353738231N00049513WA0000000190
B1706413738199N00049521WA0000000198
B1706473738171N00049519WA0000000211
B1706533738150N00049511WA0000000218
B1706593738128N00049501WA0000000227
B1707053738130N00049489WA0000000238
B1707113738135N00049485WA0000000251
B1707173738145N00049482WA0000000257
B1707233738135N00049475WA0000000254
B1707293738119N00049466WA0000000252
B1707353738111N00049458WA0000000258
B1707413738110N00049447WA0000000261
B1707473738110N00049432WA0000000264
B1707533738101N00049417WA0000000263
B1707593738089N00049403WA0000000256
B1708053738058N00049415WA0000000252
B1708113738026N00049426WA0000000248
B1708173738005N00049417WA0000000247
B1708233737993N00049402WA0000000248
B1708293737986N00049389WA0000000243
B1708353737973N00049376WA0000000236
B1708413737952N00049365WA0000000229
B1708473737961N00049368WA0000000219
B1708533737976N00049400WA0000000217
B1708593737993N00049426WA0000000218
B1709053738010N00049454WA0000000218
B1709113738030N00049487WA0000000220
B1709173738030N00049482WA0000000221
B1709233738004N00049476WA0000000222
B1709293737996N00049460WA0000000228
B1709353737992N00049442WA0000000232
B1709413737996N00049429WA0000000235
B1709473738012N00049423WA0000000240
B1709533738024N00049414WA0000000246
B1709593738036N00049404WA0000000254
B1710053738050N00049396WA0000000263
B1710113738063N00049391WA0000000274
B1710173738066N00049384WA0000000276
B1710233738036N00049397WA0000000284
B1710293738036N00049443WA0000000293
B1710353738051N00049458WA0000000295
B1710413738052N00049447WA0000000304
B1710473738053N00049438WA0000000309
B1710533738051N00049423WA0000000321
B1710593738053N00049411WA0000000337
B1711053738052N00049401WA0000000342
B1711113738027N00049408WA0000000345
B1711173738001N00049453WA0000000354
B1711233738010N00049499WA0000000370
B1711293738029N00049520WA0000000379
B1711353738047N00049527WA0000000375
B1711413738047N00049517WA0000000365
B1711473738040N00049505WA0000000360
B1711533738033N00049491WA0000000353
B1711593738024N00049478WA0000000349
B1712053738016N00049462WA0000000356
B1712113738009N00049454WA0000000352
B1712173737999N00049440WA0000000344
B1712233737986N00049423WA0000000337
B1712293737970N00049410WA0000000341
B1712353737965N00049405WA0000000345
B1712413737969N00049394WA0000000351
B1712473737978N00049391WA0000000356
B1712533737975N00049385WA0000000359
B1712593737968N00049376WA0000000349
B1713053737969N00049365WA0000000350
B1713113737967N00049351WA0000000348
B1713173737952N00049339WA0000000337
B1713233737933N00049328WA0000000324
B1713293737920N00049318WA0000000323
B1713353737911N00049310WA0000000321
B1713413737905N00049297WA0000000322
B1713473737903N00049285WA0000000316
B1713533737899N00049274WA0000000313
B1713593737900N00049260WA0000000316
B1714053737898N00049246WA0000000318
B1714113737900N00049227WA0000000320
B1714173737901N00049213WA0000000311
B1714233737901N00049196WA0000000303
B1714293737898N00049183WA0000000291
B1714353737893N00049170WA0000000280
B1714413737895N00049158WA0000000269
B1714473737897N00049144WA0000000259
B1714533737903N00049128WA0000000242
B1714593737911N00049109WA0000000235
B1715053737931N00049114WA0000000221
B1715113737955N00049141WA0000000208
B1715173737977N00049182WA0000000195
B1715233737995N00049233WA0000000187
B1715293738009N00049285WA0000000182
B1715353738007N00049345WA0000000180
B1715413738006N00049401WA0000000178
B1715473738012N00049454WA0000000177
B1715533738035N00049474WA0000000177
B1715593738023N00049471WA0000000177
B1716053738000N00049469WA0000000179
B1716113737992N00049455WA0000000183
B1716173737993N00049443WA0000000186
B1716233738013N00049451WA0000000183
B1716293738001N00049444WA0000000181
B1716353737985N00049439WA0000000179
B1716413738003N00049445WA0000000181
B1716473738027N00049470WA0000000182
B1716533738051N00049497WA0000000188
B1716593738071N00049503WA0000000193
B1717053738055N00049501WA0000000197
B1717113738035N00049503WA0000000206
B1717173738023N00049496WA0000000213
B1717233738003N00049493WA0000000215
B1717293737994N00049489WA0000000220
B1717353738017N00049515WA0000000223
B1717413738037N00049548WA0000000227
B1717473738058N00049569WA0000000229
B1717533738074N00049579WA0000000238
B1717593738087N00049580WA0000000247
B1718053738092N00049574WA0000000253
B1718113738100N00049569WA0000000261
B1718173738110N00049564WA0000000268
B1718233738124N00049565WA0000000273
B1718293738112N00049561WA0000000277
B1718353738083N00049569WA0000000285
B1718413738079N00049558WA0000000299
B1718473738088N00049551WA0000000309
B1718533738099N00049543WA0000000322
B1718593738102N00049534WA0000000336
B1719053738111N00049527WA0000000346
B1719113738119N00049520WA0000000363
B1719173738126N00049515WA0000000378
B1719233738123N00049512WA0000000379
B1719293738119N00049505WA0000000380
B1719353738116N00049499WA0000000381
B1719413738120N00049491WA0000000391
B1719473738122N00049488WA0000000403
B1719533738116N00049484WA0000000412
B1719593738089N00049498WA0000000420
B1720053738079N00049555WA0000000426
B1720113738097N00049578WA0000000436
B1720173738109N00049581WA0000000445
B1720233738119N00049580WA0000000453
B1720293738131N00049579WA0000000461
B1720353738142N00049582WA0000000469
B1720413738139N00049579WA0000000472
B1720473738121N00049572WA0000000465
B1720533738125N00049566WA0000000462
B1720593738134N00049558WA0000000459
B1721053738144N00049556WA0000000455
B1721113738152N00049550WA0000000449
B1721173738152N00049538WA0000000446
B1721233738150N00049525WA0000000447
B1721293738151N00049518WA0000000443
B1721353738151N00049503WA0000000439
B1721413738149N00049484WA0000000435
B1721473738146N00049465WA0000000431
B1721533738145N00049444WA0000000430
B1721593738141N00049427WA0000000422
B1722053738138N00049411WA0000000413
B1722113738140N00049396WA0000000412
B1722173738143N00049378WA0000000411
B1722233738144N00049364WA0000000407
B1722293738142N00049350WA0000000403
B1722353738144N00049340WA0000000403
B1722413738143N00049323WA0000000402
B1722473738139N00049311WA0000000391
B1722533738136N00049297WA0000000386
B1722593738133N00049282WA0000000385
B1723053738126N00049271WA0000000378
B1723113738123N00049257WA0000000374
B1723173738122N00049233WA0000000369
B1723233738119N00049214WA0000000355
B1723293738113N00049196WA0000000340
B1723353738109N00049176WA0000000329
B1723413738107N00049156WA0000000316
B1723473738104N00049135WA0000000305
B1723533738100N00049117WA0000000289
B1723593738102N00049100WA0000000279
B1724053738104N00049091WA0000000271
B1724113738107N00049082WA0000000263
B1724173738110N00049074WA0000000260
B1724233738117N00049068WA0000000252
B1724293738118N00049056WA0000000248
B1724353738118N00049041WA0000000243
B1724413738121N00049025WA0000000238
B1724473738142N00049050WA0000000226
B1724533738156N00049100WA0000000218
B1724593738157N00049164WA0000000213
B1725053738155N00049223WA0000000215
B1725113738155N00049286WA0000000216
B1725173738151N00049344WA0000000214
B1725233738144N00049403WA0000000212
B1725293738139N00049460WA0000000212
B1725353738136N00049514WA0000000215
B1725413738148N00049556WA0000000217
B1725473738167N00049569WA0000000224
B1725533738186N00049579WA0000000231
B1725593738198N00049582WA0000000237
B1726053738181N00049582WA0000000238
B1726113738171N00049575WA0000000242
B1726173738167N00049568WA0000000249
B1726233738153N00049558WA0000000247
B1726293738133N00049550WA0000000254
B1726353738129N00049544WA0000000262
B1726413738136N00049540WA0000000269
B1726473738140N00049534WA0000000280
B1726533738142N00049530WA0000000282
B1726593738139N00049524WA0000000285
B1727053738113N00049540WA0000000283
B1727113738083N00049558WA0000000280
B1727173738065N00049556WA0000000276
B1727233738055N00049547WA0000000276
B1727293738047N00049538WA0000000276
B1727353738039N00049525WA0000000281
B1727413738030N00049513WA0000000281
B1727473738017N00049503WA0000000276
B1727533738000N00049499WA0000000273
B1727593737987N00049491WA0000000270
B1728053737982N00049481WA0000000270
B1728113737978N00049472WA0000000270
B1728173737979N00049467WA0000000266
B1728233737990N00049464WA0000000263
B1728293738001N00049468WA0000000257
B1728353738016N00049475WA0000000254
B1728413738033N00049494WA0000000250
B1728473738052N00049532WA0000000248
B1728533738068N00049571WA0000000250
B1728593738082N00049584WA0000000252
B1729053738079N00049580WA0000000253
B1729113738058N00049579WA0000000255
B1729173738049N00049569WA0000000256
B1729233738049N00049558WA0000000259
B1729293738053N00049551WA0000000264
B1729353738060N00049550WA0000000269
B1729413738064N00049547WA0000000269
B1729473738057N00049537WA0000000268
B1729533738044N00049520WA0000000267
B1729593738040N00049509WA0000000272
B1730053738043N00049502WA0000000277
B1730113738050N00049496WA0000000283
B1730173738060N00049493WA0000000279
B1730233738073N00049484WA0000000285
B1730293738091N00049478WA0000000283
B1730353738108N00049479WA0000000285
B1730413738107N00049472WA0000000289
B1730473738077N00049489WA0000000294
B1730533738066N00049541WA0000000298
B1730593738079N00049562WA0000000300
B1731053738077N00049551WA0000000300
B1731113738078N00049544WA0000000304
B1731173738082N00049538WA0000000305
B1731233738090N00049535WA0000000305
B1731293738098N00049534WA0000000303
B1731353738110N00049538WA0000000304
B1731413738122N00049542WA0000000301
B1731473738135N00049544WA0000000294
B1731533738147N00049543WA0000000290
B1731593738161N00049539WA0000000288
B1732053738173N00049540WA0000000286
B1732113738191N00049542WA0000000283
B1732173738205N00049540WA0000000281
B1732233738214N00049532WA0000000282
B1732293738221N00049524WA0000000276
B1732353738230N00049515WA0000000274
B1732413738239N00049504WA0000000271
B1732473738249N00049496WA0000000270
B1732533738257N00049487WA0000000264
B1732593738265N00049477WA0000000259
B1733053738274N00049465WA0000000255
B1733113738283N00049455WA0000000250
B1733173738290N00049443WA0000000245
B1733233738295N00049432WA0000000245
B1733293738301N00049419WA0000000245
B1733353738308N00049402WA0000000244
B1733413738310N00049388WA0000000251
B1733473738310N00049380WA0000000254
B1733533738313N00049371WA0000000255
B1733593738318N00049360WA0000000259
B1734053738321N00049347WA0000000263
B1734113738327N00049337WA0000000267
B1734173738333N00049327WA0000000269
B1734233738337N00049319WA0000000274
B1734293738343N00049312WA0000000279
B1734353738345N00049300WA0000000279
B1734413738350N00049285WA0000000282
B1734473738353N00049274WA0000000287
B1734533738356N00049263WA0000000298
B1734593738357N00049250WA0000000294
B1735053738359N00049240WA0000000289
B1735113738362N00049226WA0000000282
B1735173738365N00049210WA0000000277
B1735233738362N00049193WA0000000266
B1735293738351N00049177WA0000000254
B1735353738332N00049165WA0000000241
B1735413738302N00049163WA0000000230
B1735473738266N00049175WA0000000221
B1735533738231N00049207WA0000000213
B1735593738202N00049255WA0000000205
B1736053738182N00049311WA0000000199
B1736113738168N00049369WA0000000196
B1736173738158N00049429WA0000000192
B1736233738144N00049485WA0000000192
B1736293738111N00049515WA0000000191
B1736353738084N00049517WA0000000192
B1736413738063N00049508WA0000000192
B1736473738036N00049501WA0000000198
B1736533738008N00049496WA0000000204
B1736593737985N00049489WA0000000212
B1737053737976N00049483WA0000000214
B1737113737984N00049492WA0000000214
B1737173737995N00049498WA0000000212
B1737233738007N00049504WA0000000214
B1737293738017N00049506WA0000000214
B1737353738026N00049503WA0000000214
B1737413738032N00049496WA0000000216
B1737473738038N00049489WA0000000216
B1737533738045N00049481WA0000000213
B1737593738045N00049471WA0000000207
B1738053738049N00049475WA0000000184
B1738113738062N00049468WA0000000177
B1738173738071N00049460WA0000000175
B1738233738071N00049454WA0000000177
B1738293738072N00049451WA0000000183
B1738353738061N00049444WA0000000189
B1738413738055N00049444WA0000000183
B1738473738067N00049448WA0000000169
B1738533738044N00049445WA0000000173
B1738593738058N00049450WA0000000171
B1739053738061N00049443WA0000000174
B1739113738072N00049445WA0000000168
B1739173738078N00049434WA0000000165
B1739233738094N00049426WA0000000166
B1739293738092N00049417WA0000000167
B1739353738069N00049409WA0000000165
B1739413738087N00049419WA0000000162
B1739473738073N00049416WA0000000155
B1739533738060N00049416WA0000000148
B1739593738070N00049416WA0000000150
B1740053738034N00049418WA0000000152
B1740113738017N00049402WA0000000157
B1740173738010N00049387WA0000000160
B1740233737996N00049381WA0000000162
B1740293737993N00049377WA0000000162
B1740353737995N00049376WA0000000158
B1740413737981N00049367WA0000000157
B1740473737999N00049386WA0000000160
B1740533738000N00049379WA0000000163
B1740593738010N00049376WA0000000170
B1741053738014N00049377WA0000000174
B1741113738007N00049362WA0000000178
B1741173738003N00049356WA0000000180
B1741233737994N00049343WA0000000180
B1741293737989N00049331WA0000000174
B1741353737982N00049315WA0000000176
B1741413737978N00049303WA0000000180
B1741473737978N00049292WA0000000181
B1741533737982N00049280WA0000000184
B1741593737986N00049269WA0000000186
B1742053737983N00049256WA0000000179
B1742113737980N00049246WA0000000174
B1742173737984N00049235WA0000000174
B1742233737969N00049227WA0000000172
B1742293737981N00049246WA0000000165
B1742353737988N00049282WA0000000156
B1742413737983N00049269WA0000000154
B1742473737977N00049250WA0000000154
B1742533737994N00049279WA0000000154
B1742593738000N00049301WA0000000151
B1743053738012N00049303WA0000000156
B1743113738024N00049329WA0000000149
B1743173738002N00049318WA0000000129
B1743233738013N00049317WA0000000122
B1743293738022N00049321WA0000000122
B1743353738016N00049305WA0000000127
B1743413738029N00049321WA0000000122
LXCG     VERSION:5.7
GAA23DE95C6B7B84CC284DF84A07258AA370D6B6FF0F8C2FDA9E6868577F12F1A2EF1D
G8057BFC3C95000181C7F3194995CC676D6A165FD27E963C60360B4CD4D9C7F84302
GC258C976E72EEC8E51695BBEB0093889C833F8C6C034665065B1D974ADAC0FBAD7D
G7CAD6C9F09C24346C33C5A778D03297CE2F21294ACC9796FD3022F15A975F